J Socas — EAEY — position and weather

sailwx.info

Track history (hours):
 
Tides and Currents Weather Stations Pressure Air Temp Water Temp Dewpoint Dewpoint Depression Visibility Wind Speed Wind Dir Waves Ship Positions

J Socas

Last reported at 2018-Jun-10 15:39 UTC. Time now 2018-Jun-19 12:46 UTC.
Position N 27°52' W 015°22'.
Warning: this ship's position is 8 days out of date.

Length 39 m; draft 2.7 m.

MMSI: 225414000.

Date/timePositionNaut miles runAvg speedWind from/ knotsBaromVisibWave heightAir tempDewpointWater temp
2018-Jun-10 15:39N 27°52' W 015°22'210.0
2018-Jun-10 15:30N 27°53' W 015°21'5 9.3
2018-Jun-10 15:00N 27°58' W 015°21'5 9.0
2018-Jun-10 14:30N 28°02' W 015°23'2 2.2
2018-Jun-10 13:30N 28°00' W 015°21'4 8.0
2018-Jun-10 13:00N 27°56' W 015°20'4 7.7
2018-Jun-10 12:30N 27°53' W 015°22'  
2018-Jun-04 12:19N 27°52' W 015°22'3 8.9
2018-Jun-04 11:59N 27°55' W 015°20'4 8.5
2018-Jun-04 11:30N 27°59' W 015°21'4 8.9
2018-Jun-04 11:00N 28°03' W 015°23'4 9.1
2018-Jun-04 10:30N 28°08' W 015°25'1 2.5
2018-Jun-04 10:00N 28°09' W 015°25'0 0.0
2018-Jun-03 17:55N 28°09' W 015°25'0 0.0
2018-Jun-03 17:30N 28°09' W 015°25'2 3.5
2018-Jun-03 17:00N 28°07' W 015°24'3 5.2
2018-Jun-03 16:30N 28°10' W 015°24'4 7.3
2018-Jun-03 16:00N 28°13' W 015°26'4 8.0
2018-Jun-03 15:30N 28°15' W 015°30'4 8.1
2018-Jun-03 15:00N 28°16' W 015°34'4 8.3
2018-Jun-03 14:30N 28°17' W 015°39'4 8.2
2018-Jun-03 14:00N 28°19' W 015°43'4 8.0
2018-Jun-03 13:30N 28°20' W 015°47'4 8.1
2018-Jun-03 13:00N 28°22' W 015°52'4 8.1
2018-Jun-03 12:30N 28°23' W 015°56'5 8.0
2018-Jun-03 11:57N 28°25' W 016°01'6 8.1
2018-Jun-03 11:11N 28°27' W 016°07'2 8.2
2018-Jun-03 10:59N 28°28' W 016°09'3 6.8
2018-Jun-03 10:30N 28°29' W 016°12'1 1.3
2018-Jun-03 10:00N 28°30' W 016°12'0 0.1
2018-Jun-03 09:30N 28°30' W 016°12'0 0.0
2018-Jun-03 09:00N 28°30' W 016°12'0 0.0
2018-Jun-03 08:30N 28°30' W 016°12'0 0.0
2018-Jun-03 08:00N 28°30' W 016°12'0 0.2
2018-Jun-03 07:30N 28°30' W 016°12'1 1.2
2018-Jun-03 07:00N 28°29' W 016°12'0 0.4
2018-Jun-03 06:30N 28°29' W 016°12'1 1.4
2018-Jun-03 06:00N 28°30' W 016°12'0 0.0
2018-Jun-03 05:30N 28°30' W 016°12'0 0.0
2018-Jun-03 05:00N 28°30' W 016°12'0 0.0
2018-Jun-03 04:28N 28°30' W 016°12'0 0.0
2018-Jun-03 04:00N 28°30' W 016°12'0 0.0
2018-Jun-03 03:30N 28°30' W 016°12'0 0.0
2018-Jun-03 03:00N 28°30' W 016°12'0 0.0
2018-Jun-03 02:30N 28°30' W 016°12'0 0.0
2018-Jun-03 02:01N 28°30' W 016°12'0 0.0
2018-Jun-03 01:28N 28°30' W 016°12'0 0.0
2018-Jun-03 00:59N 28°30' W 016°12'0 0.0
2018-Jun-03 00:30N 28°30' W 016°12'0 0.0
2018-Jun-03 00:00N 28°30' W 016°12'0 0.0
2018-Jun-02 23:31N 28°30' W 016°12'0 0.0
2018-Jun-02 23:00N 28°30' W 016°12'0 0.0
2018-Jun-02 22:30N 28°30' W 016°12'0 0.0
2018-Jun-02 22:01N 28°30' W 016°12'0 0.0
2018-Jun-02 21:30N 28°30' W 016°12'0 0.0
2018-Jun-02 21:00N 28°30' W 016°12'0 0.0
2018-Jun-02 20:30N 28°30' W 016°12'0 0.0
2018-Jun-02 20:00N 28°30' W 016°12'0 0.0
2018-Jun-02 19:30N 28°30' W 016°12'0 0.0
2018-Jun-02 19:00N 28°30' W 016°12'0 0.0
2018-Jun-02 18:30N 28°30' W 016°12'0 1.0
2018-Jun-02 18:00N 28°30' W 016°13'4 8.2
2018-Jun-02 17:30N 28°27' W 016°09'4 8.8
2018-Jun-02 17:00N 28°25' W 016°05'3 5.8
2018-Jun-02 16:27N 28°23' W 016°01'2 4.6
2018-Jun-02 16:00N 28°23' W 015°59'15 8.7
2018-Jun-02 14:18N 28°17' W 015°44'3 8.9
2018-Jun-02 13:59N 28°16' W 015°41'4 8.9
2018-Jun-02 13:30N 28°15' W 015°36'4 8.9
2018-Jun-02 13:00N 28°14' W 015°31'4 8.8
2018-Jun-02 12:30N 28°12' W 015°26'4 7.2
2018-Jun-02 12:00N 28°10' W 015°23'3 5.3
2018-Jun-02 11:31N 28°08' W 015°25'1 2.2
2018-Jun-02 11:00N 28°09' W 015°25'0 0.0
2018-Jun-02 10:30N 28°09' W 015°25'  
Track history (hours):
 
Tides and Currents Weather Stations Pressure Air Temp Water Temp Dewpoint Dewpoint Depression Visibility Wind Speed Wind Dir Waves Ship Positions

J Socas

Last reported at 2018-Jun-10 15:39 UTC. Time now 2018-Jun-19 12:46 UTC.
Position N 27°52' W 015°22'.
Warning: this ship's position is 8 days out of date.

Length 39 m; draft 2.7 m.

MMSI: 225414000.

Date/timePositionNaut miles runAvg speedWind from/ knotsBaromVisibWave heightAir tempDewpointWater temp
2018-Jun-10 15:39N 27°52' W 015°22'210.0
2018-Jun-10 15:30N 27°53' W 015°21'5 9.3
2018-Jun-10 15:00N 27°58' W 015°21'5 9.0
2018-Jun-10 14:30N 28°02' W 015°23'2 2.2
2018-Jun-10 13:30N 28°00' W 015°21'4 8.0
2018-Jun-10 13:00N 27°56' W 015°20'4 7.7
2018-Jun-10 12:30N 27°53' W 015°22'  
2018-Jun-04 12:19N 27°52' W 015°22'3 8.9
2018-Jun-04 11:59N 27°55' W 015°20'4 8.5
2018-Jun-04 11:30N 27°59' W 015°21'4 8.9
2018-Jun-04 11:00N 28°03' W 015°23'4 9.1
2018-Jun-04 10:30N 28°08' W 015°25'1 2.5
2018-Jun-04 10:00N 28°09' W 015°25'0 0.0
2018-Jun-03 17:55N 28°09' W 015°25'0 0.0
2018-Jun-03 17:30N 28°09' W 015°25'2 3.5
2018-Jun-03 17:00N 28°07' W 015°24'3 5.2
2018-Jun-03 16:30N 28°10' W 015°24'4 7.3
2018-Jun-03 16:00N 28°13' W 015°26'4 8.0
2018-Jun-03 15:30N 28°15' W 015°30'4 8.1
2018-Jun-03 15:00N 28°16' W 015°34'4 8.3
2018-Jun-03 14:30N 28°17' W 015°39'4 8.2
2018-Jun-03 14:00N 28°19' W 015°43'4 8.0
2018-Jun-03 13:30N 28°20' W 015°47'4 8.1
2018-Jun-03 13:00N 28°22' W 015°52'4 8.1
2018-Jun-03 12:30N 28°23' W 015°56'5 8.0
2018-Jun-03 11:57N 28°25' W 016°01'6 8.1
2018-Jun-03 11:11N 28°27' W 016°07'2 8.2
2018-Jun-03 10:59N 28°28' W 016°09'3 6.8
2018-Jun-03 10:30N 28°29' W 016°12'1 1.3
2018-Jun-03 10:00N 28°30' W 016°12'0 0.1
2018-Jun-03 09:30N 28°30' W 016°12'0 0.0
2018-Jun-03 09:00N 28°30' W 016°12'0 0.0
2018-Jun-03 08:30N 28°30' W 016°12'0 0.0
2018-Jun-03 08:00N 28°30' W 016°12'0 0.2
2018-Jun-03 07:30N 28°30' W 016°12'1 1.2
2018-Jun-03 07:00N 28°29' W 016°12'0 0.4
2018-Jun-03 06:30N 28°29' W 016°12'1 1.4
2018-Jun-03 06:00N 28°30' W 016°12'0 0.0
2018-Jun-03 05:30N 28°30' W 016°12'0 0.0
2018-Jun-03 05:00N 28°30' W 016°12'0 0.0
2018-Jun-03 04:28N 28°30' W 016°12'0 0.0
2018-Jun-03 04:00N 28°30' W 016°12'0 0.0
2018-Jun-03 03:30N 28°30' W 016°12'0 0.0
2018-Jun-03 03:00N 28°30' W 016°12'0 0.0
2018-Jun-03 02:30N 28°30' W 016°12'0 0.0
2018-Jun-03 02:01N 28°30' W 016°12'0 0.0
2018-Jun-03 01:28N 28°30' W 016°12'0 0.0
2018-Jun-03 00:59N 28°30' W 016°12'0 0.0
2018-Jun-03 00:30N 28°30' W 016°12'0 0.0
2018-Jun-03 00:00N 28°30' W 016°12'0 0.0
2018-Jun-02 23:31N 28°30' W 016°12'0 0.0
2018-Jun-02 23:00N 28°30' W 016°12'0 0.0
2018-Jun-02 22:30N 28°30' W 016°12'0 0.0
2018-Jun-02 22:01N 28°30' W 016°12'0 0.0
2018-Jun-02 21:30N 28°30' W 016°12'0 0.0
2018-Jun-02 21:00N 28°30' W 016°12'0 0.0
2018-Jun-02 20:30N 28°30' W 016°12'0 0.0
2018-Jun-02 20:00N 28°30' W 016°12'0 0.0
2018-Jun-02 19:30N 28°30' W 016°12'0 0.0
2018-Jun-02 19:00N 28°30' W 016°12'0 0.0
2018-Jun-02 18:30N 28°30' W 016°12'0 1.0
2018-Jun-02 18:00N 28°30' W 016°13'4 8.2
2018-Jun-02 17:30N 28°27' W 016°09'4 8.8
2018-Jun-02 17:00N 28°25' W 016°05'3 5.8
2018-Jun-02 16:27N 28°23' W 016°01'2 4.6
2018-Jun-02 16:00N 28°23' W 015°59'15 8.7
2018-Jun-02 14:18N 28°17' W 015°44'3 8.9
2018-Jun-02 13:59N 28°16' W 015°41'4 8.9
2018-Jun-02 13:30N 28°15' W 015°36'4 8.9
2018-Jun-02 13:00N 28°14' W 015°31'4 8.8
2018-Jun-02 12:30N 28°12' W 015°26'4 7.2
2018-Jun-02 12:00N 28°10' W 015°23'3 5.3
2018-Jun-02 11:31N 28°08' W 015°25'1 2.2
2018-Jun-02 11:00N 28°09' W 015°25'0 0.0
2018-Jun-02 10:30N 28°09' W 015°25'  

Dump ship's entire track history